Time;durP1;ratioP1;P1;durP2;ratioP2;P2;SDS_P1;SDS_P2;PMS_P1;PMS_P2;Temp;Humidity;BMP_temperature;BMP_pressure;BME280_temperature;BME280_humidity;BME280_pressure;Samples;Min_cycle;Max_cycle;Signal;HPM_P1;HPM_P2
2022/12/14 00:02:45;;;;;;;45.72;30.15;;;;;;;;;;10093602;28;20047;-63
2022/12/14 00:07:41;;;;;;;41.63;31.23;;;;;;;;;;10090803;28;20413;-64
2022/12/14 00:12:37;;;;;;;46.38;29.90;;;;;;;;;;10095890;28;20074;-64
2022/12/14 00:17:34;;;;;;;39.17;29.77;;;;;;;;;;10098383;28;20126;-64
2022/12/14 00:22:30;;;;;;;46.08;29.25;;;;;;;;;;10101364;28;20157;-64
2022/12/14 00:27:27;;;;;;;38.45;26.42;;;;;;;;;;10094097;28;20046;-63
2022/12/14 00:32:23;;;;;;;39.17;27.88;;;;;;;;;;10102798;28;20043;-64
2022/12/14 00:37:20;;;;;;;38.15;26.20;;;;;;;;;;10101979;28;20046;-64
2022/12/14 00:42:16;;;;;;;39.30;26.15;;;;;;;;;;10093810;28;20049;-63
2022/12/14 00:47:12;;;;;;;39.63;25.58;;;;;;;;;;10107894;28;20038;-64
2022/12/14 00:52:08;;;;;;;34.33;26.02;;;;;;;;;;10094644;28;20054;-65
2022/12/14 00:57:04;;;;;;;35.67;25.25;;;;;;;;;;10101282;28;20536;-65
2022/12/14 01:02:01;;;;;;;35.85;25.63;;;;;;;;;;10094314;28;20042;-65
2022/12/14 01:06:57;;;;;;;42.53;26.00;;;;;;;;;;10057888;28;1027880;-64
2022/12/14 01:11:54;;;;;;;34.90;24.40;;;;;;;;;;10098122;28;20122;-65
2022/12/14 01:16:50;;;;;;;37.67;25.38;;;;;;;;;;10108180;28;20069;-65
2022/12/14 01:21:46;;;;;;;34.50;24.70;;;;;;;;;;10081145;28;20051;-65
2022/12/14 01:26:42;;;;;;;37.80;24.95;;;;;;;;;;10081913;28;20046;-65
2022/12/14 01:31:39;;;;;;;38.20;24.13;;;;;;;;;;10099249;28;20055;-65
2022/12/14 01:36:35;;;;;;;42.08;26.05;;;;;;;;;;10090766;28;20047;-65
2022/12/14 01:41:34;;;;;;;37.28;24.88;;;;;;;;;;10100191;28;20043;-65
2022/12/14 01:46:33;;;;;;;36.70;25.17;;;;;;;;;;10096537;28;20070;-64
2022/12/14 01:51:30;;;;;;;35.58;23.75;;;;;;;;;;10101396;28;20078;-64
2022/12/14 01:56:27;;;;;;;35.05;24.20;;;;;;;;;;10090807;28;20771;-65
2022/12/14 02:01:24;;;;;;;32.15;23.13;;;;;;;;;;10095747;28;20506;-65
2022/12/14 02:06:24;;;;;;;40.72;25.15;;;;;;;;;;10092878;28;20050;-65
2022/12/14 02:11:39;;;;;;;34.83;23.88;;;;;;;;;;10108197;28;20043;-64
2022/12/14 02:16:35;;;;;;;31.65;23.25;;;;;;;;;;10090699;28;20051;-64
2022/12/14 02:21:51;;;;;;;33.58;23.83;;;;;;;;;;10095895;28;20578;-64
2022/12/14 02:27:06;;;;;;;33.88;23.38;;;;;;;;;;10096999;28;20058;-64
2022/12/14 02:32:08;;;;;;;35.53;24.85;;;;;;;;;;10089771;28;20047;-65
2022/12/14 02:37:15;;;;;;;35.25;23.60;;;;;;;;;;10105272;28;20047;-64
2022/12/14 02:42:14;;;;;;;38.10;23.95;;;;;;;;;;10101073;28;20057;-64
2022/12/14 02:47:14;;;;;;;36.50;23.25;;;;;;;;;;10097810;28;20043;-64
2022/12/14 02:52:10;;;;;;;34.72;23.98;;;;;;;;;;10101662;28;20042;-65
2022/12/14 02:57:12;;;;;;;34.70;23.05;;;;;;;;;;10108920;28;20125;-64
2022/12/14 03:02:09;;;;;;;;;;;;;;;;;;10105932;28;20054;-64
2022/12/14 03:07:23;;;;;;;31.27;22.80;;;;;;;;;;10103510;28;20431;-64
2022/12/14 03:12:19;;;;;;;33.13;23.48;;;;;;;;;;10094926;28;20042;-64
2022/12/14 03:17:17;;;;;;;39.83;24.92;;;;;;;;;;10108844;28;20509;-64
2022/12/14 03:22:22;;;;;;;35.55;23.88;;;;;;;;;;10104701;28;20406;-64
2022/12/14 03:27:18;;;;;;;37.05;24.67;;;;;;;;;;10099150;28;20085;-64
2022/12/14 03:32:17;;;;;;;33.53;25.25;;;;;;;;;;10102624;28;20038;-64
2022/12/14 03:37:26;;;;;;;32.50;24.98;;;;;;;;;;10101810;28;20122;-65
2022/12/14 03:42:24;;;;;;;39.50;24.90;;;;;;;;;;10095235;28;20053;-65
2022/12/14 03:47:21;;;;;;;34.42;24.70;;;;;;;;;;10100582;28;20046;-65
2022/12/14 03:52:23;;;;;;;40.67;25.02;;;;;;;;;;10109305;28;20036;-65
2022/12/14 03:57:19;;;;;;;;;;;;;;;;;;10080681;28;20049;-63
2022/12/14 04:02:21;;;;;;;39.90;23.88;;;;;;;;;;10105089;28;20355;-63
2022/12/14 04:07:39;;;;;;;33.95;25.15;;;;;;;;;;10086580;28;20526;-63
2022/12/14 04:23:11;;;;;;;40.33;25.45;;;;;;;;;;10093188;28;20050;-65
2022/12/14 04:29:55;;;;;;;36.95;25.33;;;;;;;;;;10096445;28;20034;-67
2022/12/14 04:33:46;;;;;;;31.35;25.85;;;;;;;;;;10089382;28;20042;-64
2022/12/14 04:38:43;;;;;;;34.97;26.02;;;;;;;;;;10086247;28;20146;-64
2022/12/14 04:43:42;;;;;;;35.33;26.15;;;;;;;;;;10092056;28;20073;-64
2022/12/14 04:48:53;;;;;;;37.35;24.83;;;;;;;;;;10091083;28;20133;-66
2022/12/14 04:53:50;;;;;;;34.08;25.30;;;;;;;;;;10095090;28;20561;-66
2022/12/14 04:58:47;;;;;;;36.65;27.13;;;;;;;;;;10091654;28;20145;-65
2022/12/14 05:03:50;;;;;;;38.65;27.13;;;;;;;;;;10082992;28;20070;-65
2022/12/14 05:08:52;;;;;;;37.90;26.65;;;;;;;;;;10074043;28;20081;-66
2022/12/14 05:13:49;;;;;;;37.08;27.80;;;;;;;;;;10079536;28;20777;-66
2022/12/14 05:18:45;;;;;;;40.85;28.02;;;;;;;;;;10094679;28;20142;-68
2022/12/14 05:23:42;;;;;;;37.95;28.13;;;;;;;;;;10091443;28;20129;-66
2022/12/14 05:28:38;;;;;;;39.28;28.27;;;;;;;;;;10097018;28;20228;-66
2022/12/14 05:33:34;;;;;;;38.53;27.92;;;;;;;;;;10085304;28;20051;-65
2022/12/14 05:38:30;;;;;;;33.60;26.15;;;;;;;;;;10101941;28;20061;-66
2022/12/14 05:43:27;;;;;;;39.70;28.42;;;;;;;;;;10117183;28;20808;-66
2022/12/14 05:48:24;;;;;;;36.22;28.13;;;;;;;;;;10090034;28;20386;-66
2022/12/14 05:53:20;;;;;;;37.22;26.45;;;;;;;;;;10093073;28;20039;-66
2022/12/14 05:58:17;;;;;;;35.55;27.42;;;;;;;;;;10086857;28;20039;-66
2022/12/14 06:03:13;;;;;;;39.75;27.20;;;;;;;;;;10082880;28;20069;-66
2022/12/14 06:08:09;;;;;;;34.40;27.63;;;;;;;;;;10093602;28;20662;-66
2022/12/14 06:13:05;;;;;;;42.35;29.75;;;;;;;;;;10101691;28;20046;-66
2022/12/14 06:18:02;;;;;;;41.13;29.85;;;;;;;;;;10087813;28;20069;-66
2022/12/14 06:22:58;;;;;;;39.50;29.52;;;;;;;;;;10087812;28;20057;-65
2022/12/14 06:27:54;;;;;;;37.15;28.30;;;;;;;;;;10084300;28;20394;-67
2022/12/14 06:32:50;;;;;;;41.08;28.05;;;;;;;;;;10099513;28;20043;-65
2022/12/14 06:37:47;;;;;;;39.25;29.75;;;;;;;;;;10098443;28;20046;-65
2022/12/14 06:42:45;;;;;;;37.97;28.38;;;;;;;;;;10101479;28;20530;-65
2022/12/14 06:47:41;;;;;;;39.15;28.77;;;;;;;;;;10094045;28;20585;-65
2022/12/14 06:52:38;;;;;;;40.15;29.55;;;;;;;;;;10107340;28;20050;-64
2022/12/14 06:57:34;;;;;;;36.13;27.60;;;;;;;;;;10098644;28;20540;-64
2022/12/14 07:02:31;;;;;;;38.75;29.63;;;;;;;;;;10106732;28;20042;-65
2022/12/14 07:07:27;;;;;;;40.95;29.92;;;;;;;;;;10094241;28;20050;-65
2022/12/14 07:12:24;;;;;;;41.80;31.35;;;;;;;;;;10108044;28;20043;-65
2022/12/14 07:17:20;;;;;;;40.58;31.42;;;;;;;;;;10094194;28;20446;-65
2022/12/14 07:22:17;;;;;;;40.50;29.90;;;;;;;;;;10102936;28;20129;-65
2022/12/14 07:27:15;;;;;;;42.97;29.13;;;;;;;;;;10091578;28;20044;-66
2022/12/14 07:32:12;;;;;;;38.70;27.73;;;;;;;;;;10094885;28;20050;-64
2022/12/14 07:37:08;;;;;;;37.42;29.30;;;;;;;;;;10096321;28;20054;-65
2022/12/14 07:42:04;;;;;;;36.95;29.35;;;;;;;;;;10093367;28;20484;-65
2022/12/14 07:47:01;;;;;;;40.38;29.85;;;;;;;;;;10088877;28;20069;-63
2022/12/14 07:51:57;;;;;;;36.90;28.02;;;;;;;;;;10084074;28;20050;-65
2022/12/14 07:56:53;;;;;;;40.22;28.63;;;;;;;;;;10086956;28;20043;-65
2022/12/14 08:01:51;;;;;;;38.65;27.70;;;;;;;;;;10088122;28;20671;-65
2022/12/14 08:06:47;;;;;;;40.38;30.42;;;;;;;;;;10088003;28;20078;-65
2022/12/14 08:11:44;;;;;;;35.95;29.42;;;;;;;;;;10098218;28;20061;-65
2022/12/14 08:16:40;;;;;;;38.13;29.65;;;;;;;;;;10089755;28;20051;-66
2022/12/14 08:21:36;;;;;;;40.50;29.60;;;;;;;;;;10090927;28;20145;-65
2022/12/14 08:26:32;;;;;;;36.55;28.25;;;;;;;;;;10079454;28;20058;-65
2022/12/14 08:31:31;;;;;;;37.92;30.55;;;;;;;;;;10093664;28;20556;-65
2022/12/14 08:36:29;;;;;;;38.17;29.35;;;;;;;;;;10091631;28;20077;-65
2022/12/14 08:41:26;;;;;;;37.15;28.67;;;;;;;;;;10086471;28;20054;-65
2022/12/14 08:46:23;;;;;;;34.72;28.98;;;;;;;;;;10090482;28;20082;-65
2022/12/14 08:51:20;;;;;;;36.13;27.65;;;;;;;;;;10094688;28;20047;-65
2022/12/14 08:56:17;;;;;;;34.40;28.63;;;;;;;;;;10084308;28;20058;-64
2022/12/14 09:01:18;;;;;;;32.50;25.45;;;;;;;;;;10086678;28;20043;-65
2022/12/14 09:06:26;;;;;;;39.57;27.50;;;;;;;;;;10097948;28;20051;-66
2022/12/14 09:11:23;;;;;;;34.95;26.52;;;;;;;;;;10093641;28;20126;-65
2022/12/14 09:16:20;;;;;;;33.63;26.58;;;;;;;;;;10086581;28;20039;-64
2022/12/14 09:21:17;;;;;;;32.40;26.65;;;;;;;;;;10087983;28;20054;-64
2022/12/14 09:26:15;;;;;;;30.52;24.20;;;;;;;;;;10087785;28;20525;-65
2022/12/14 09:31:12;;;;;;;33.15;24.83;;;;;;;;;;10087615;28;20063;-65
2022/12/14 09:36:13;;;;;;;38.72;25.02;;;;;;;;;;10087033;28;20130;-65
2022/12/14 09:41:19;;;;;;;28.10;23.05;;;;;;;;;;10095139;28;20493;-65
2022/12/14 09:46:15;;;;;;;37.22;24.45;;;;;;;;;;10097629;28;20047;-65
2022/12/14 09:51:15;;;;;;;33.20;23.35;;;;;;;;;;10102810;28;20047;-65
2022/12/14 09:56:14;;;;;;;28.02;22.08;;;;;;;;;;10111103;28;20047;-65
2022/12/14 10:01:19;;;;;;;30.60;21.25;;;;;;;;;;10093202;28;20417;-65
2022/12/14 10:06:35;;;;;;;29.08;19.83;;;;;;;;;;10096436;28;20043;-65
2022/12/14 10:11:40;;;;;;;32.53;19.98;;;;;;;;;;10090480;28;20053;-65
2022/12/14 10:16:42;;;;;;;27.33;20.05;;;;;;;;;;10093306;28;20547;-65
2022/12/14 10:21:51;;;;;;;30.35;19.73;;;;;;;;;;10097853;28;20062;-66
2022/12/14 10:26:50;;;;;;;28.67;18.58;;;;;;;;;;10099923;28;20046;-65
2022/12/14 10:32:05;;;;;;;26.45;19.38;;;;;;;;;;10093734;28;20078;-66
2022/12/14 10:37:20;;;;;;;26.90;18.75;;;;;;;;;;10093989;28;20413;-66
2022/12/14 10:42:37;;;;;;;29.35;18.13;;;;;;;;;;10094848;28;20134;-65
2022/12/14 10:47:36;;;;;;;24.60;17.33;;;;;;;;;;10072202;28;20053;-65
2022/12/14 10:52:37;;;;;;;24.90;17.00;;;;;;;;;;10098520;28;20062;-65
2022/12/14 10:57:33;;;;;;;19.55;15.27;;;;;;;;;;10103363;28;20138;-65
2022/12/14 11:02:32;;;;;;;22.73;15.52;;;;;;;;;;10105202;28;20057;-65
2022/12/14 11:07:32;;;;;;;24.85;15.63;;;;;;;;;;10095782;28;20580;-65
2022/12/14 11:12:28;;;;;;;19.77;15.70;;;;;;;;;;10110763;28;20051;-65
2022/12/14 11:17:34;;;;;;;23.50;16.15;;;;;;;;;;10093855;28;20390;-66
2022/12/14 11:22:41;;;;;;;24.85;17.08;;;;;;;;;;10090760;28;20046;-66
2022/12/14 11:27:38;;;;;;;20.05;14.98;;;;;;;;;;10084388;28;20058;-66
2022/12/14 11:32:34;;;;;;;20.17;14.82;;;;;;;;;;10084524;28;20535;-66
2022/12/14 11:37:31;;;;;;;21.00;14.65;;;;;;;;;;10091690;28;20058;-66
2022/12/14 11:42:27;;;;;;;30.67;14.95;;;;;;;;;;10088603;28;20535;-66
2022/12/14 11:47:27;;;;;;;24.10;16.05;;;;;;;;;;10094014;28;20046;-66
2022/12/14 11:52:35;;;;;;;21.10;15.63;;;;;;;;;;10105305;28;20050;-66
2022/12/14 11:57:39;;;;;;;20.80;15.18;;;;;;;;;;10104315;28;20047;-65
2022/12/14 12:02:46;;;;;;;22.60;15.60;;;;;;;;;;10087110;28;20509;-66
2022/12/14 12:07:48;;;;;;;24.08;16.45;;;;;;;;;;10090111;28;20047;-66
2022/12/14 12:12:49;;;;;;;23.17;15.02;;;;;;;;;;10097338;28;20051;-66
2022/12/14 12:17:53;;;;;;;27.50;16.83;;;;;;;;;;10087565;28;20163;-66
2022/12/14 12:22:51;;;;;;;22.70;15.63;;;;;;;;;;10090840;28;20050;-65
2022/12/14 12:27:50;;;;;;;19.98;14.82;;;;;;;;;;10080702;28;20139;-65
2022/12/14 12:32:48;;;;;;;22.55;16.30;;;;;;;;;;10094531;28;20473;-66
2022/12/14 12:37:51;;;;;;;24.67;15.35;;;;;;;;;;10092504;28;20121;-66
2022/12/14 12:42:55;;;;;;;21.35;15.25;;;;;;;;;;10081829;28;20050;-66
2022/12/14 12:47:54;;;;;;;20.40;14.82;;;;;;;;;;10082943;28;20923;-66
2022/12/14 12:53:03;;;;;;;21.92;14.38;;;;;;;;;;10087874;28;20050;-66
2022/12/14 12:58:01;;;;;;;18.40;13.80;;;;;;;;;;10092380;28;20106;-66
2022/12/14 13:02:59;;;;;;;23.58;14.68;;;;;;;;;;10084252;28;20170;-66
2022/12/14 13:07:58;;;;;;;21.42;14.88;;;;;;;;;;10098123;28;20047;-66
2022/12/14 13:12:59;;;;;;;19.73;13.63;;;;;;;;;;10092280;28;20134;-66
2022/12/14 13:18:00;;;;;;;18.97;13.47;;;;;;;;;;10080951;28;20043;-66
2022/12/14 13:22:57;;;;;;;22.60;14.93;;;;;;;;;;10095663;28;20035;-65
2022/12/14 13:28:18;;;;;;;20.73;15.05;;;;;;;;;;10101321;28;20524;-66
2022/12/14 13:33:17;;;;;;;27.45;15.38;;;;;;;;;;10083734;28;20595;-66
2022/12/14 13:38:32;;;;;;;23.40;14.75;;;;;;;;;;10086381;28;20053;-66
2022/12/14 13:43:29;;;;;;;20.95;14.18;;;;;;;;;;10088153;28;20040;-66
2022/12/14 13:48:26;;;;;;;22.25;15.02;;;;;;;;;;10083971;28;20054;-66
2022/12/14 13:53:44;;;;;;;24.85;14.57;;;;;;;;;;10084779;28;20050;-66
2022/12/14 13:58:46;;;;;;;23.38;16.67;;;;;;;;;;10078088;28;20066;-66
2022/12/14 14:03:45;;;;;;;25.60;16.48;;;;;;;;;;10080851;28;20142;-66
2022/12/14 14:08:42;;;;;;;21.30;15.27;;;;;;;;;;10092502;28;20094;-66
2022/12/14 14:13:41;;;;;;;28.13;16.13;;;;;;;;;;10082002;28;20089;-66
2022/12/14 14:18:46;;;;;;;31.52;16.17;;;;;;;;;;10106027;28;20050;-66
2022/12/14 14:23:57;;;;;;;24.45;15.63;;;;;;;;;;10087125;28;20070;-66
2022/12/14 14:29:12;;;;;;;23.65;15.95;;;;;;;;;;10097180;28;20658;-66
2022/12/14 14:34:13;;;;;;;28.77;17.13;;;;;;;;;;10103764;28;20047;-66
2022/12/14 14:39:36;;;;;;;33.30;19.52;;;;;;;;;;10105656;28;20053;-66
2022/12/14 14:44:54;;;;;;;36.20;21.00;;;;;;;;;;10095065;28;20047;-66
2022/12/14 14:49:58;;;;;;;39.72;21.30;;;;;;;;;;10097043;28;20046;-67
2022/12/14 14:54:55;;;;;;;41.40;21.92;;;;;;;;;;10107516;28;20138;-66
2022/12/14 15:00:11;;;;;;;40.00;22.08;;;;;;;;;;10091905;28;20089;-66
2022/12/14 15:05:19;;;;;;;39.95;22.45;;;;;;;;;;10091940;28;20050;-66
2022/12/14 15:10:37;;;;;;;39.38;22.65;;;;;;;;;;10094769;28;20054;-66
2022/12/14 15:15:35;;;;;;;36.63;21.73;;;;;;;;;;10096259;28;20552;-66
2022/12/14 15:20:32;;;;;;;40.28;22.80;;;;;;;;;;10101081;28;20051;-66
2022/12/14 15:25:29;;;;;;;36.13;22.73;;;;;;;;;;10096090;28;20047;-66
2022/12/14 15:30:26;;;;;;;34.92;21.98;;;;;;;;;;10093292;28;20047;-66
2022/12/14 15:35:25;;;;;;;34.50;20.35;;;;;;;;;;10106167;28;20129;-65
2022/12/14 15:40:22;;;;;;;36.63;21.25;;;;;;;;;;10105601;28;20109;-65
2022/12/14 15:45:21;;;;;;;34.67;22.05;;;;;;;;;;10108279;28;20054;-65
2022/12/14 15:50:24;;;;;;;28.25;19.55;;;;;;;;;;10100560;28;20055;-66
2022/12/14 15:55:20;;;;;;;26.73;18.52;;;;;;;;;;10092416;28;20556;-66
2022/12/14 16:00:16;;;;;;;28.80;19.33;;;;;;;;;;10094510;28;20058;-66
2022/12/14 16:05:14;;;;;;;29.70;19.38;;;;;;;;;;10085779;28;20058;-65
2022/12/14 16:10:24;;;;;;;30.55;19.75;;;;;;;;;;10088065;28;20047;-66
2022/12/14 16:15:22;;;;;;;32.08;20.08;;;;;;;;;;10086151;28;20078;-65
2022/12/14 16:20:30;;;;;;;33.33;21.08;;;;;;;;;;10097740;28;20062;-65
2022/12/14 16:25:28;;;;;;;32.33;20.73;;;;;;;;;;10102782;28;20050;-65
2022/12/14 16:30:26;;;;;;;27.25;19.15;;;;;;;;;;10100982;28;20053;-65
2022/12/14 16:35:25;;;;;;;30.42;20.40;;;;;;;;;;10105792;28;20150;-65
2022/12/14 16:40:27;;;;;;;27.98;21.02;;;;;;;;;;10095729;28;20434;-65
2022/12/14 16:45:42;;;;;;;28.08;19.98;;;;;;;;;;10093627;28;20493;-65
2022/12/14 16:50:38;;;;;;;31.48;20.42;;;;;;;;;;10094505;28;20129;-65
2022/12/14 16:56:11;;;;;;;31.63;21.25;;;;;;;;;;10087299;28;20095;-65
2022/12/14 17:01:08;;;;;;;33.95;21.85;;;;;;;;;;10095253;28;20058;-65
2022/12/14 17:06:05;;;;;;;40.97;22.63;;;;;;;;;;10088746;28;20061;-67
2022/12/14 17:11:02;;;;;;;33.70;21.52;;;;;;;;;;10097940;28;20133;-66
2022/12/14 17:16:01;;;;;;;35.30;23.98;;;;;;;;;;10091181;28;20682;-66
2022/12/14 17:20:58;;;;;;;34.97;23.02;;;;;;;;;;10097588;28;20050;-65
2022/12/14 17:25:54;;;;;;;30.52;21.52;;;;;;;;;;10096913;28;20047;-66
2022/12/14 17:30:51;;;;;;;32.60;22.27;;;;;;;;;;10104861;28;20464;-66
2022/12/14 17:35:47;;;;;;;32.78;21.67;;;;;;;;;;10100322;28;20505;-66
2022/12/14 17:40:44;;;;;;;30.67;22.33;;;;;;;;;;10101215;28;20050;-66
2022/12/14 17:45:41;;;;;;;31.73;21.83;;;;;;;;;;10092120;28;20134;-66
2022/12/14 17:50:38;;;;;;;31.08;19.95;;;;;;;;;;10091922;28;20046;-67
2022/12/14 17:55:34;;;;;;;33.17;22.08;;;;;;;;;;10093211;28;20050;-67
2022/12/14 18:05:48;;;;;;;37.55;23.30;;;;;;;;;;10102926;28;20125;-67
2022/12/14 18:10:45;;;;;;;34.75;23.45;;;;;;;;;;10098166;28;20053;-67
2022/12/14 18:15:42;;;;;;;31.20;22.55;;;;;;;;;;10095853;28;20078;-65
2022/12/14 18:20:47;;;;;;;31.85;23.92;;;;;;;;;;10097173;28;20505;-67
2022/12/14 18:25:49;;;;;;;34.10;23.10;;;;;;;;;;10097097;28;20063;-66
2022/12/14 18:30:47;;;;;;;34.63;22.40;;;;;;;;;;10087992;28;20594;-67
2022/12/14 18:35:45;;;;;;;33.65;21.73;;;;;;;;;;10096624;28;20046;-67
2022/12/14 18:40:42;;;;;;;33.42;23.15;;;;;;;;;;10095852;28;20528;-66
2022/12/14 18:45:44;;;;;;;38.83;24.63;;;;;;;;;;10092273;28;20119;-66
2022/12/14 18:50:42;;;;;;;38.83;25.98;;;;;;;;;;10091772;28;20047;-67
2022/12/14 18:55:39;;;;;;;42.47;25.17;;;;;;;;;;10098056;28;20141;-66
2022/12/14 19:00:35;;;;;;;35.78;23.60;;;;;;;;;;10098882;28;20058;-67
2022/12/14 19:05:32;;;;;;;37.85;24.80;;;;;;;;;;10096605;28;21246;-67
2022/12/14 19:10:29;;;;;;;35.13;23.45;;;;;;;;;;10108026;28;20050;-66
2022/12/14 19:15:27;;;;;;;34.42;23.65;;;;;;;;;;10099772;28;20051;-66
2022/12/14 19:20:23;;;;;;;35.65;24.08;;;;;;;;;;10098863;28;20046;-66
2022/12/14 19:25:20;;;;;;;33.85;22.35;;;;;;;;;;10092562;28;20515;-66
2022/12/14 19:30:21;;;;;;;38.75;23.17;;;;;;;;;;10097471;28;20074;-66
2022/12/14 19:35:18;;;;;;;29.80;22.17;;;;;;;;;;10099239;28;20266;-66
2022/12/14 19:40:15;;;;;;;30.95;22.38;;;;;;;;;;10105610;28;20059;-66
2022/12/14 19:45:11;;;;;;;35.85;24.20;;;;;;;;;;10105066;28;20051;-66
2022/12/14 19:50:11;;;;;;;37.63;24.58;;;;;;;;;;10113627;28;20162;-67
2022/12/14 19:55:07;;;;;;;33.53;23.17;;;;;;;;;;10091792;28;20047;-67
2022/12/14 20:00:07;;;;;;;33.67;24.15;;;;;;;;;;10109415;28;20133;-66
2022/12/14 20:05:04;;;;;;;36.10;22.63;;;;;;;;;;10112863;28;20057;-67
2022/12/14 20:10:00;;;;;;;36.30;23.30;;;;;;;;;;10097315;28;20057;-66
2022/12/14 20:14:57;;;;;;;38.35;25.45;;;;;;;;;;10103150;28;20059;-66
2022/12/14 20:19:53;;;;;;;39.83;26.35;;;;;;;;;;10105722;28;20648;-66
2022/12/14 20:24:50;;;;;;;41.40;26.65;;;;;;;;;;10088994;28;20050;-66
2022/12/14 20:29:46;;;;;;;44.55;27.17;;;;;;;;;;10093713;28;20050;-66
2022/12/14 20:34:43;;;;;;;36.95;26.08;;;;;;;;;;10101433;28;20488;-66
2022/12/14 20:39:39;;;;;;;38.22;26.10;;;;;;;;;;10091701;28;20141;-66
2022/12/14 20:44:35;;;;;;;36.58;24.83;;;;;;;;;;10107570;28;20049;-66
2022/12/14 20:49:31;;;;;;;35.45;25.58;;;;;;;;;;10091281;28;20666;-66
2022/12/14 20:54:28;;;;;;;37.45;25.80;;;;;;;;;;10089025;28;20130;-71
2022/12/14 20:59:25;;;;;;;34.85;24.40;;;;;;;;;;10086786;28;20047;-66
2022/12/14 21:04:21;;;;;;;35.35;24.73;;;;;;;;;;10095840;28;20043;-71
2022/12/14 21:09:18;;;;;;;34.33;25.75;;;;;;;;;;10090180;28;20039;-66
2022/12/14 21:14:14;;;;;;;37.05;26.48;;;;;;;;;;10097545;28;20130;-66
2022/12/14 21:19:11;;;;;;;37.47;25.75;;;;;;;;;;10089295;28;20054;-67
2022/12/14 21:24:09;;;;;;;45.50;27.65;;;;;;;;;;10094387;28;20051;-67
2022/12/14 21:29:07;;;;;;;30.35;25.25;;;;;;;;;;10097405;28;20043;-66
2022/12/14 21:34:03;;;;;;;40.97;25.45;;;;;;;;;;10087817;28;20069;-66
2022/12/14 21:39:01;;;;;;;36.88;25.10;;;;;;;;;;10100349;28;20137;-66
2022/12/14 21:43:58;;;;;;;33.72;26.17;;;;;;;;;;10101264;28;20039;-66
2022/12/14 21:48:54;;;;;;;39.65;26.98;;;;;;;;;;10101675;28;20047;-66
2022/12/14 21:53:58;;;;;;;38.22;25.35;;;;;;;;;;10104270;28;20049;-66
2022/12/14 21:58:56;;;;;;;35.03;25.08;;;;;;;;;;10093663;28;20058;-67
2022/12/14 22:03:55;;;;;;;31.30;23.92;;;;;;;;;;10122020;28;20097;-66
2022/12/14 22:08:52;;;;;;;36.72;25.92;;;;;;;;;;10108300;28;20058;-66
2022/12/14 22:13:48;;;;;;;39.88;26.13;;;;;;;;;;10101545;28;20047;-66
2022/12/14 22:18:48;;;;;;;35.38;24.52;;;;;;;;;;10105483;28;20047;-67
2022/12/14 22:23:45;;;;;;;32.58;24.60;;;;;;;;;;10102079;28;20445;-68
2022/12/14 22:28:41;;;;;;;30.17;23.52;;;;;;;;;;10105935;28;20497;-67
2022/12/14 22:33:38;;;;;;;35.25;24.08;;;;;;;;;;10123604;28;20055;-68
2022/12/14 22:38:35;;;;;;;32.58;25.10;;;;;;;;;;10098545;28;20086;-66
2022/12/14 22:43:31;;;;;;;37.58;25.00;;;;;;;;;;10091761;28;20093;-66
2022/12/14 22:48:33;;;;;;;35.05;24.85;;;;;;;;;;10097956;28;20071;-67
2022/12/14 22:53:30;;;;;;;37.58;24.15;;;;;;;;;;10104697;28;20137;-68
2022/12/14 22:58:27;;;;;;;36.83;23.58;;;;;;;;;;10107659;28;21903;-68
2022/12/14 23:03:24;;;;;;;37.70;24.25;;;;;;;;;;10099518;28;20074;-67
2022/12/14 23:08:21;;;;;;;33.65;22.58;;;;;;;;;;10101250;28;20086;-67
